Time;durP1;ratioP1;P1;durP2;ratioP2;P2;SDS_P1;SDS_P2;PMS_P1;PMS_P2;Temp;Humidity;BMP_temperature;BMP_pressure;BME280_temperature;BME280_humidity;BME280_pressure;Samples;Min_cycle;Max_cycle;Signal;HPM_P1;HPM_P2
2022/08/15 00:00:09;;;;;;;9.82;8.93;;;24.60;56.10;;;;;;5000557;28;20402;-74
2022/08/15 00:02:35;;;;;;;9.25;8.45;;;24.60;56.10;;;;;;4982703;28;20487;-73
2022/08/15 00:05:01;;;;;;;9.80;8.90;;;24.60;56.10;;;;;;5005301;28;20873;-73
2022/08/15 00:07:27;;;;;;;9.63;8.73;;;24.60;56.00;;;;;;5001632;28;20507;-74
2022/08/15 00:09:53;;;;;;;10.23;9.23;;;24.60;56.00;;;;;;5000973;28;20813;-74
2022/08/15 00:12:18;;;;;;;9.65;8.75;;;24.60;56.10;;;;;;5001390;28;20415;-73
2022/08/15 00:14:44;;;;;;;9.50;8.60;;;24.60;56.10;;;;;;5000826;28;20391;-73
2022/08/15 00:17:10;;;;;;;10.15;9.25;;;24.60;56.00;;;;;;4983401;28;20408;-73
2022/08/15 00:19:44;;;;;;;10.10;9.20;;;24.60;56.00;;;;;;5002582;28;20396;-72
2022/08/15 00:22:17;;;;;;;9.88;8.98;;;24.60;56.00;;;;;;4984108;28;20437;-73
2022/08/15 00:24:43;;;;;;;9.80;8.90;;;24.60;56.00;;;;;;5004916;28;20392;-74
2022/08/15 00:27:10;;;;;;;10.40;9.40;;;24.60;56.00;;;;;;5000929;28;20607;-72
2022/08/15 00:29:36;;;;;;;9.55;8.75;;;24.60;56.00;;;;;;4989652;28;20390;-70
2022/08/15 00:32:19;;;;;;;10.68;9.68;;;24.60;56.00;;;;;;4984783;28;20425;-74
2022/08/15 00:34:46;;;;;;;10.20;9.27;;;24.60;56.00;;;;;;5001152;28;20433;-73
2022/08/15 00:37:11;;;;;;;10.40;9.50;;;24.60;56.00;;;;;;5000788;28;20433;-73
2022/08/15 00:39:38;;;;;;;9.55;8.65;;;24.60;55.90;;;;;;5000247;28;20747;-71
2022/08/15 00:42:07;;;;;;;10.23;9.27;;;24.50;55.90;;;;;;5001501;28;20419;-74
2022/08/15 00:44:44;;;;;;;9.68;8.88;;;24.60;55.90;;;;;;5001842;28;20382;-73
2022/08/15 00:47:20;;;;;;;10.32;9.43;;;24.60;55.90;;;;;;5002024;28;20401;-73
2022/08/15 00:49:48;;;;;;;10.20;9.30;;;24.60;55.90;;;;;;5001888;28;20509;-71
2022/08/15 00:52:24;;;;;;;9.90;9.00;;;24.60;55.90;;;;;;4984239;28;20413;-73
2022/08/15 00:54:55;;;;;;;9.70;8.80;;;24.50;55.80;;;;;;5001997;28;20397;-73
2022/08/15 00:57:40;;;;;;;10.10;9.20;;;24.50;55.80;;;;;;5001903;28;20427;-73
2022/08/15 01:00:14;;;;;;;10.10;9.15;;;24.50;55.90;;;;;;5001927;28;20765;-73
2022/08/15 01:02:40;;;;;;;9.82;8.93;;;24.50;55.90;;;;;;5000590;28;20424;-73
2022/08/15 01:05:13;;;;;;;10.20;9.30;;;24.50;55.80;;;;;;5000555;28;20449;-74
2022/08/15 01:07:39;;;;;;;10.13;9.23;;;24.50;55.80;;;;;;4999713;28;20406;-71
2022/08/15 01:10:06;;;;;;;9.68;8.77;;;24.50;55.80;;;;;;5000090;28;20401;-74
2022/08/15 01:12:33;;;;;;;10.40;9.40;;;24.50;55.80;;;;;;4981865;28;20406;-73
2022/08/15 01:15:08;;;;;;;9.60;8.70;;;24.50;55.80;;;;;;5011622;28;20388;-74
2022/08/15 01:17:34;;;;;;;10.20;9.30;;;24.50;55.80;;;;;;5010873;28;20454;-74
2022/08/15 01:20:07;;;;;;;9.55;8.65;;;24.50;55.80;;;;;;5012051;28;20479;-72
2022/08/15 01:22:42;;;;;;;9.90;9.00;;;24.50;55.90;;;;;;5012055;28;21023;-74
2022/08/15 01:25:13;;;;;;;9.23;8.43;;;24.50;55.80;;;;;;4994218;28;21398;-74
2022/08/15 01:27:57;;;;;;;9.95;9.05;;;24.50;55.80;;;;;;5011927;28;20396;-74
2022/08/15 01:30:27;;;;;;;9.80;8.90;;;24.50;55.80;;;;;;5011982;28;20392;-73
2022/08/15 01:32:55;;;;;;;9.50;8.70;;;24.50;55.80;;;;;;4994240;28;20500;-74
2022/08/15 01:35:20;;;;;;;10.10;9.23;;;24.50;55.80;;;;;;5012018;28;20380;-74
2022/08/15 01:37:50;;;;;;;9.90;9.00;;;24.50;55.80;;;;;;5011717;28;20487;-74
2022/08/15 01:40:45;;;;;;;10.05;9.25;;;24.40;55.80;;;;;;5011930;28;20392;-74
2022/08/15 01:43:12;;;;;;;9.88;8.98;;;24.50;55.80;;;;;;4993621;28;20430;-74
2022/08/15 01:45:41;;;;;;;9.82;8.93;;;24.40;55.80;;;;;;5011589;28;20881;-74
2022/08/15 01:48:30;;;;;;;10.25;9.35;;;24.40;55.80;;;;;;5011712;28;20458;-74
2022/08/15 01:51:00;;;;;;;9.27;8.48;;;24.40;55.80;;;;;;4994156;28;20435;-73
2022/08/15 01:53:35;;;;;;;9.45;8.65;;;24.40;55.80;;;;;;4994036;28;20380;-73
2022/08/15 01:56:16;;;;;;;9.02;8.23;;;24.40;55.80;;;;;;5010414;28;20401;-74
2022/08/15 01:58:43;;;;;;;9.55;8.65;;;24.40;55.80;;;;;;5010432;28;20389;-74
2022/08/15 02:01:19;;;;;;;10.50;9.60;;;24.40;55.80;;;;;;5011691;28;20393;-74
2022/08/15 02:03:47;;;;;;;9.60;8.80;;;24.40;55.70;;;;;;5011583;28;20416;-74
2022/08/15 02:06:24;;;;;;;9.27;8.48;;;24.40;56.40;;;;;;5011624;28;20959;-74
2022/08/15 02:08:52;;;;;;;9.95;9.05;;;24.40;55.80;;;;;;4993632;28;20405;-73
2022/08/15 02:11:22;;;;;;;9.40;8.60;;;24.40;55.80;;;;;;5011630;28;20392;-74
2022/08/15 02:13:49;;;;;;;9.80;8.90;;;24.40;55.80;;;;;;5015033;28;20393;-70
2022/08/15 02:16:17;;;;;;;9.63;8.73;;;24.40;55.70;;;;;;4997533;28;20389;-74
2022/08/15 02:18:43;;;;;;;9.20;8.40;;;24.40;55.70;;;;;;5015030;28;20432;-74
2022/08/15 02:21:09;;;;;;;9.57;8.67;;;24.40;55.70;;;;;;4997439;28;20897;-74
2022/08/15 02:23:35;;;;;;;9.63;8.73;;;24.40;55.60;;;;;;5013700;28;20928;-74
2022/08/15 02:26:01;;;;;;;10.23;9.32;;;24.40;55.70;;;;;;5014582;28;20435;-74
2022/08/15 02:28:26;;;;;;;9.52;8.68;;;24.40;55.70;;;;;;5014780;28;20401;-72
2022/08/15 02:30:53;;;;;;;9.27;8.47;;;24.40;55.70;;;;;;5014661;28;20748;-73
2022/08/15 02:33:19;;;;;;;9.88;8.98;;;24.40;55.60;;;;;;5014765;28;20397;-73
2022/08/15 02:35:51;;;;;;;10.23;9.32;;;24.40;55.70;;;;;;5014706;28;20396;-70
2022/08/15 02:38:17;;;;;;;10.02;9.20;;;24.40;55.60;;;;;;4997039;28;20413;-74
2022/08/15 02:40:44;;;;;;;9.55;8.75;;;24.30;55.60;;;;;;5014612;28;20429;-74
2022/08/15 02:43:12;;;;;;;9.25;8.45;;;24.30;55.60;;;;;;5014399;28;20928;-74
2022/08/15 02:45:39;;;;;;;9.32;8.52;;;24.30;55.60;;;;;;4997010;28;20412;-74
2022/08/15 02:48:10;;;;;;;8.95;8.13;;;24.40;55.60;;;;;;4996863;28;20538;-73
2022/08/15 02:50:38;;;;;;;9.48;8.68;;;24.30;55.50;;;;;;5014389;28;20399;-73
2022/08/15 02:53:17;;;;;;;9.18;8.35;;;24.30;55.50;;;;;;5014290;28;20389;-74
2022/08/15 02:55:46;;;;;;;9.48;8.65;;;24.30;55.50;;;;;;5014241;28;20416;-74
2022/08/15 02:58:13;;;;;;;9.02;8.23;;;24.30;55.50;;;;;;5014199;28;20373;-73
2022/08/15 03:00:41;;;;;;;9.37;8.50;;;24.30;55.50;;;;;;5013949;28;20404;-74
2022/08/15 03:03:10;;;;;;;8.88;8.07;;;24.30;55.50;;;;;;5013685;28;20934;-74
2022/08/15 03:05:39;;;;;;;9.65;8.85;;;24.30;55.50;;;;;;5013656;28;20396;-73
2022/08/15 03:08:06;;;;;;;9.30;8.45;;;24.30;55.50;;;;;;5014010;28;20396;-74
2022/08/15 03:10:33;;;;;;;8.80;8.00;;;24.30;55.50;;;;;;5013839;28;20393;-74
2022/08/15 03:13:02;;;;;;;9.38;8.57;;;24.30;55.50;;;;;;5013418;28;20392;-73
2022/08/15 03:15:36;;;;;;;9.10;8.30;;;24.30;55.50;;;;;;5013519;28;20497;-74
2022/08/15 03:18:03;;;;;;;9.23;8.43;;;24.30;55.50;;;;;;5013459;28;20385;-74
2022/08/15 03:20:29;;;;;;;8.68;7.90;;;24.30;55.50;;;;;;5013863;28;20400;-73
2022/08/15 03:22:55;;;;;;;9.40;8.60;;;24.30;55.50;;;;;;5013089;28;20421;-74
2022/08/15 03:25:24;;;;;;;9.07;8.27;;;24.30;55.50;;;;;;5013338;28;20384;-73
2022/08/15 03:27:49;;;;;;;9.57;8.77;;;24.30;55.50;;;;;;5012103;28;20876;-73
2022/08/15 03:30:16;;;;;;;9.43;8.63;;;24.30;55.40;;;;;;5013360;28;20432;-74
2022/08/15 03:32:53;;;;;;;9.00;8.30;;;24.30;55.40;;;;;;4996037;28;20401;-74
2022/08/15 03:35:22;;;;;;;9.50;8.70;;;24.30;55.50;;;;;;5013573;28;20381;-74
2022/08/15 03:37:48;;;;;;;9.07;8.30;;;24.30;55.40;;;;;;5013271;28;20437;-73
2022/08/15 03:40:14;;;;;;;9.27;8.48;;;24.30;55.40;;;;;;5013509;28;20750;-74
2022/08/15 03:42:52;;;;;;;9.20;8.40;;;24.30;55.40;;;;;;5013351;28;20959;-74
2022/08/15 03:45:19;;;;;;;9.20;8.43;;;24.30;55.50;;;;;;4996036;28;20959;-74
2022/08/15 03:47:45;;;;;;;9.02;8.20;;;24.30;55.50;;;;;;4995732;28;20455;-74
2022/08/15 03:50:13;;;;;;;8.77;7.97;;;24.30;55.40;;;;;;5013104;28;20389;-73
2022/08/15 03:53:00;;;;;;;8.93;8.13;;;24.30;55.40;;;;;;5013159;28;20446;-74
2022/08/15 03:55:28;;;;;;;9.20;8.40;;;24.20;55.40;;;;;;5013188;28;20532;-74
2022/08/15 03:57:55;;;;;;;9.10;8.40;;;24.20;55.40;;;;;;5012830;28;20423;-74
2022/08/15 04:00:25;;;;;;;9.55;8.77;;;24.20;55.40;;;;;;4995492;28;20388;-73
2022/08/15 04:02:51;;;;;;;9.00;8.20;;;24.20;55.40;;;;;;5012653;28;20424;-74
2022/08/15 04:05:17;;;;;;;9.27;8.48;;;24.20;55.50;;;;;;5013032;28;20388;-74
2022/08/15 04:07:42;;;;;;;10.00;9.20;;;24.20;55.40;;;;;;5012992;28;20400;-74
2022/08/15 04:10:15;;;;;;;9.07;8.27;;;24.20;55.40;;;;;;4995278;28;20395;-73
2022/08/15 04:12:43;;;;;;;8.40;7.70;;;24.20;55.40;;;;;;4995399;28;20405;-74
2022/08/15 04:15:15;;;;;;;9.07;8.27;;;24.20;55.40;;;;;;5012850;28;20381;-73
2022/08/15 04:17:42;;;;;;;9.05;8.25;;;24.20;55.40;;;;;;5012828;28;20389;-74
2022/08/15 04:20:10;;;;;;;8.60;7.90;;;24.20;55.40;;;;;;5012764;28;20447;-73
2022/08/15 04:22:44;;;;;;;9.27;8.48;;;24.20;55.30;;;;;;5012662;28;20928;-74
2022/08/15 04:25:18;;;;;;;8.80;8.00;;;24.20;55.40;;;;;;5012691;28;20403;-73
2022/08/15 04:27:46;;;;;;;9.20;8.35;;;24.20;55.40;;;;;;5012656;28;20397;-73
2022/08/15 04:30:11;;;;;;;9.13;8.32;;;24.20;55.40;;;;;;4994495;28;20424;-74
2022/08/15 04:32:39;;;;;;;9.20;8.40;;;24.20;55.40;;;;;;5012204;28;20749;-74
2022/08/15 04:35:05;;;;;;;9.18;8.38;;;24.20;55.40;;;;;;5012142;28;20428;-74
2022/08/15 04:37:31;;;;;;;8.50;7.80;;;24.20;55.50;;;;;;5012332;28;20479;-74
2022/08/15 04:39:56;;;;;;;8.67;7.97;;;24.20;55.40;;;;;;5012421;28;20432;-73
2022/08/15 04:42:24;;;;;;;9.07;8.38;;;24.20;55.50;;;;;;5012318;28;20432;-74
2022/08/15 04:44:50;;;;;;;8.95;8.25;;;24.20;55.40;;;;;;5012376;28;20393;-74
2022/08/15 04:47:16;;;;;;;9.07;8.35;;;24.20;55.50;;;;;;5012305;28;20535;-73
2022/08/15 04:49:44;;;;;;;8.90;8.20;;;24.20;55.50;;;;;;5012343;28;20392;-73
2022/08/15 04:52:13;;;;;;;9.30;8.50;;;24.20;55.50;;;;;;5012295;28;20462;-74
2022/08/15 04:54:40;;;;;;;9.20;8.50;;;24.20;55.50;;;;;;5012256;28;20403;-74
2022/08/15 04:57:06;;;;;;;9.25;8.45;;;24.20;55.50;;;;;;5012258;28;20393;-74
2022/08/15 04:59:32;;;;;;;9.32;8.52;;;24.20;55.50;;;;;;5012196;28;20400;-74
2022/08/15 05:01:58;;;;;;;9.30;8.50;;;24.20;55.60;;;;;;5012097;28;20502;-74
2022/08/15 05:04:23;;;;;;;9.32;8.63;;;24.20;55.50;;;;;;5012240;28;20909;-74
2022/08/15 05:06:49;;;;;;;9.17;8.40;;;24.20;55.50;;;;;;5012151;28;20401;-73
2022/08/15 05:09:15;;;;;;;9.23;8.52;;;24.20;55.60;;;;;;5012106;28;20403;-74
2022/08/15 05:11:40;;;;;;;8.52;7.82;;;24.20;55.60;;;;;;5012125;28;20395;-73
2022/08/15 05:14:06;;;;;;;9.25;8.45;;;24.20;55.60;;;;;;5011927;28;20401;-74
2022/08/15 05:16:35;;;;;;;9.25;8.45;;;24.20;55.60;;;;;;5011777;28;20464;-74
2022/08/15 05:19:01;;;;;;;8.90;8.15;;;24.20;55.60;;;;;;4994345;28;20463;-73
2022/08/15 05:21:28;;;;;;;8.90;8.20;;;24.20;55.60;;;;;;4994356;28;20393;-74
2022/08/15 05:23:54;;;;;;;9.47;8.67;;;24.20;55.60;;;;;;5010645;28;20765;-74
2022/08/15 05:26:20;;;;;;;8.20;7.50;;;24.20;55.60;;;;;;5011787;28;20396;-74
2022/08/15 05:28:45;;;;;;;9.33;8.53;;;24.20;55.60;;;;;;5011956;28;20403;-74
2022/08/15 05:31:12;;;;;;;8.52;7.82;;;24.10;55.60;;;;;;5011551;28;20896;-74
2022/08/15 05:33:39;;;;;;;8.82;8.13;;;24.10;55.60;;;;;;4994110;28;20784;-74
2022/08/15 05:36:07;;;;;;;8.98;8.27;;;24.10;55.60;;;;;;5011798;28;20479;-74
2022/08/15 05:38:40;;;;;;;9.88;9.07;;;24.20;55.60;;;;;;5011670;28;20769;-74
2022/08/15 05:41:21;;;;;;;8.63;7.93;;;24.10;55.60;;;;;;4994203;28;20752;-74
2022/08/15 05:44:02;;;;;;;8.80;8.00;;;24.10;55.60;;;;;;5011774;28;20408;-73
2022/08/15 05:46:45;;;;;;;9.00;8.30;;;24.10;55.60;;;;;;4993900;28;20468;-74
2022/08/15 05:49:32;;;;;;;9.10;8.30;;;24.10;55.60;;;;;;5014774;28;20440;-72
2022/08/15 05:52:12;;;;;;;9.45;8.75;;;24.10;55.60;;;;;;5015524;28;20385;-74
2022/08/15 05:54:55;;;;;;;8.80;8.00;;;24.10;55.60;;;;;;5015406;28;20388;-74
2022/08/15 05:57:33;;;;;;;8.90;8.20;;;24.10;55.70;;;;;;5015395;28;20399;-73
2022/08/15 06:00:05;;;;;;;9.02;8.23;;;24.10;55.70;;;;;;5015278;28;20393;-74
2022/08/15 06:02:39;;;;;;;8.98;8.18;;;24.10;55.70;;;;;;4997530;28;20404;-74
2022/08/15 06:05:15;;;;;;;8.77;8.07;;;24.10;55.70;;;;;;5015244;28;20404;-74
2022/08/15 06:07:46;;;;;;;8.55;7.85;;;24.10;55.70;;;;;;5015183;28;20381;-73
2022/08/15 06:10:25;;;;;;;8.77;7.97;;;24.10;55.70;;;;;;5015185;28;20900;-73
2022/08/15 06:13:08;;;;;;;9.48;8.60;;;24.10;55.90;;;;;;5015118;28;20388;-73
2022/08/15 06:15:53;;;;;;;10.38;8.40;;;24.10;56.20;;;;;;4997668;28;20432;-74
2022/08/15 06:18:21;;;;;;;9.82;8.70;;;24.10;56.20;;;;;;5014808;28;20483;-73
2022/08/15 06:21:02;;;;;;;10.75;9.65;;;24.10;56.70;;;;;;4997064;28;20895;-73
2022/08/15 06:24:02;;;;;;;12.20;9.05;;;24.10;56.90;;;;;;4997287;28;20437;-74
2022/08/15 06:26:42;;;;;;;10.68;9.23;;;24.10;56.40;;;;;;4993086;28;20435;-73
2022/08/15 06:29:13;;;;;;;9.98;8.98;;;24.10;56.50;;;;;;5014816;28;20389;-74
2022/08/15 06:32:00;;;;;;;11.30;8.90;;;24.10;56.90;;;;;;5014781;28;20400;-74
2022/08/15 06:34:47;;;;;;;10.90;9.80;;;24.10;56.70;;;;;;5013679;28;20808;-74
2022/08/15 06:37:34;;;;;;;9.77;8.85;;;24.10;56.80;;;;;;5014494;28;20495;-73
2022/08/15 06:40:41;;;;;;;10.13;9.13;;;24.00;56.60;;;;;;4996953;28;20753;-74
2022/08/15 06:43:09;;;;;;;10.13;9.13;;;24.10;56.60;;;;;;4915854;29;20549;-73
2022/08/15 06:45:38;;;;;;;9.70;8.70;;;24.00;56.50;;;;;;4999955;28;20392;-73
2022/08/15 06:48:13;;;;;;;9.30;8.50;;;24.00;56.60;;;;;;4996861;28;20753;-74
2022/08/15 06:50:40;;;;;;;10.13;9.13;;;24.10;56.70;;;;;;5013242;28;20393;-74
2022/08/15 06:53:14;;;;;;;10.52;9.30;;;24.00;56.60;;;;;;5013117;28;20397;-74
2022/08/15 06:55:52;;;;;;;12.18;8.93;;;24.00;56.70;;;;;;4996656;28;20396;-73
2022/08/15 06:58:38;;;;;;;11.52;9.02;;;24.00;56.90;;;;;;5014074;28;20391;-73
2022/08/15 07:01:46;;;;;;;12.80;9.23;;;24.10;56.90;;;;;;5014268;28;20399;-73
2022/08/15 07:04:30;;;;;;;10.00;9.00;;;24.10;56.90;;;;;;4968133;28;20401;-73
2022/08/15 07:07:28;;;;;;;9.60;8.60;;;24.00;56.90;;;;;;5013455;28;20519;-75
2022/08/15 07:10:02;;;;;;;9.15;8.15;;;24.00;57.00;;;;;;4996499;28;20400;-73
2022/08/15 07:12:46;;;;;;;10.43;8.13;;;24.00;57.00;;;;;;5013944;28;20416;-73
2022/08/15 07:15:20;;;;;;;9.00;8.10;;;24.00;57.00;;;;;;5013932;28;20807;-73
2022/08/15 07:17:53;;;;;;;9.00;7.90;;;24.00;57.00;;;;;;5013845;28;20416;-73
2022/08/15 07:20:18;;;;;;;10.18;7.88;;;24.00;56.90;;;;;;5013839;28;20396;-73
2022/08/15 07:22:44;;;;;;;13.35;7.82;;;24.00;57.00;;;;;;5013846;28;20423;-75
2022/08/15 07:25:18;;;;;;;13.65;7.70;;;24.10;56.90;;;;;;5013641;28;20416;-73
2022/08/15 07:27:58;;;;;;;12.35;7.75;;;24.10;57.00;;;;;;5013761;28;20434;-73
2022/08/15 07:30:38;;;;;;;12.40;7.45;;;24.10;57.20;;;;;;5013751;28;20388;-74
2022/08/15 07:33:04;;;;;;;10.80;7.82;;;24.10;57.10;;;;;;5013510;28;20396;-73
2022/08/15 07:35:33;;;;;;;11.40;7.73;;;24.20;59.40;;;;;;4995353;28;20766;-73
2022/08/15 07:38:02;;;;;;;9.90;7.05;;;24.20;59.20;;;;;;4995616;28;20417;-73
2022/08/15 07:40:28;;;;;;;10.52;6.80;;;24.30;57.80;;;;;;5013793;28;20431;-72
2022/08/15 07:42:54;;;;;;;8.63;6.50;;;24.20;57.70;;;;;;4996587;28;20460;-74
2022/08/15 07:45:36;;;;;;;9.57;6.07;;;24.20;58.60;;;;;;5013651;28;20381;-72
2022/08/15 07:48:24;;;;;;;12.55;6.72;;;24.30;57.70;;;;;;5013322;28;20801;-73
2022/08/15 07:51:25;;;;;;;11.15;6.50;;;24.30;57.20;;;;;;5013117;28;20869;-72
2022/08/15 07:54:00;;;;;;;11.83;5.93;;;24.30;57.50;;;;;;4961867;28;20466;-73
2022/08/15 07:56:29;;;;;;;10.43;6.13;;;24.30;57.70;;;;;;5013240;28;20395;-72
2022/08/15 07:59:20;;;;;;;9.57;6.10;;;24.30;57.60;;;;;;5013112;28;20422;-72
2022/08/15 08:01:46;;;;;;;10.68;5.95;;;24.30;57.50;;;;;;5012658;28;20416;-69
2022/08/15 08:04:24;;;;;;;8.63;6.50;;;24.30;56.90;;;;;;4994840;28;20431;-69
2022/08/15 08:07:04;;;;;;;11.75;6.45;;;24.30;56.80;;;;;;5004304;28;20393;-73
2022/08/15 08:09:43;;;;;;;9.32;6.38;;;24.20;56.60;;;;;;5002538;28;20406;-73
2022/08/15 08:12:14;;;;;;;11.38;5.93;;;24.20;56.80;;;;;;5003762;28;20396;-72
2022/08/15 08:15:08;;;;;;;8.10;5.90;;;24.20;56.60;;;;;;5002243;28;20416;-72
2022/08/15 08:18:05;;;;;;;7.63;6.13;;;24.20;56.70;;;;;;5005431;28;20409;-72
2022/08/15 08:21:06;;;;;;;14.98;6.65;;;24.20;56.60;;;;;;5002922;28;20443;-71
2022/08/15 08:23:38;;;;;;;15.70;6.90;;;24.30;56.70;;;;;;5003195;28;20443;-71
2022/08/15 08:26:25;;;;;;;15.57;6.85;;;24.30;56.70;;;;;;5004093;28;20389;-71
2022/08/15 08:29:03;;;;;;;16.00;6.47;;;24.30;56.80;;;;;;5003296;28;20501;-73
2022/08/15 08:32:01;;;;;;;16.83;6.30;;;24.30;57.40;;;;;;5003515;28;20446;-72
2022/08/15 08:34:33;;;;;;;12.55;6.30;;;24.30;57.70;;;;;;5003635;28;20393;-74
2022/08/15 08:37:17;;;;;;;10.93;6.20;;;24.30;57.20;;;;;;5002195;28;20393;-73
2022/08/15 08:41:24;;;;;;;16.05;5.90;;;24.30;57.40;;;;;;5003100;28;20385;-71
2022/08/15 08:42:52;;;;;;;11.25;5.93;;;24.30;57.40;;;;;;5002634;28;20432;-72
2022/08/15 08:45:29;;;;;;;11.40;5.80;;;24.30;57.30;;;;;;5002114;28;20413;-71
2022/08/15 08:48:13;;;;;;;11.93;5.90;;;24.30;56.90;;;;;;5001423;28;20884;-72
2022/08/15 08:51:22;;;;;;;9.90;6.30;;;24.30;56.70;;;;;;5005615;28;20470;-72
2022/08/15 08:54:14;;;;;;;8.73;5.10;;;24.30;56.70;;;;;;5002332;28;20402;-71
2022/08/15 08:56:46;;;;;;;12.80;5.68;;;24.30;56.60;;;;;;5002392;28;20395;-72
2022/08/15 08:59:35;;;;;;;13.88;5.57;;;24.30;56.40;;;;;;5001050;28;20387;-73
2022/08/15 09:02:14;;;;;;;10.07;5.65;;;24.30;56.30;;;;;;5001037;28;20449;-72
2022/08/15 09:04:45;;;;;;;10.93;5.32;;;24.30;56.30;;;;;;5001818;28;20400;-72
2022/08/15 09:07:15;;;;;;;8.50;5.53;;;24.30;56.30;;;;;;5002307;28;20455;-72
2022/08/15 09:09:43;;;;;;;9.57;5.38;;;24.30;56.30;;;;;;5003752;28;20485;-72
2022/08/15 09:15:05;;;;;;;7.60;4.93;;;24.30;56.20;;;;;;5012210;28;20388;-72
2022/08/15 09:17:34;;;;;;;8.27;5.30;;;24.30;56.20;;;;;;4994381;28;20415;-72
2022/08/15 09:20:10;;;;;;;9.50;5.10;;;24.40;56.30;;;;;;5012101;28;20876;-72
2022/08/15 09:22:36;;;;;;;9.27;5.50;;;24.40;56.30;;;;;;4997132;28;20499;-72
2022/08/15 09:25:02;;;;;;;8.80;5.22;;;24.40;56.30;;;;;;5015968;28;20404;-72
2022/08/15 09:27:39;;;;;;;7.43;5.07;;;24.40;56.30;;;;;;5015999;28;20439;-72
2022/08/15 09:30:09;;;;;;;7.22;4.60;;;24.40;56.20;;;;;;5015881;28;20381;-72
2022/08/15 09:33:13;;;;;;;5.75;4.93;;;24.40;56.20;;;;;;5015998;28;20385;-72
2022/08/15 09:35:42;;;;;;;6.40;4.90;;;24.40;56.20;;;;;;4985471;28;20414;-71
2022/08/15 09:38:32;;;;;;;8.60;4.90;;;24.40;56.20;;;;;;5010617;28;20419;-72
2022/08/15 09:41:37;;;;;;;6.63;5.03;;;24.40;56.20;;;;;;5015669;28;20392;-72
2022/08/15 09:44:21;;;;;;;6.57;4.90;;;24.40;56.10;;;;;;5009033;28;20547;-71
2022/08/15 09:47:02;;;;;;;5.80;4.63;;;24.40;56.10;;;;;;5004734;28;20395;-72
2022/08/15 09:49:48;;;;;;;6.28;5.03;;;24.40;56.70;;;;;;5005883;28;20423;-72
2022/08/15 09:52:37;;;;;;;5.75;5.00;;;24.40;56.10;;;;;;5005450;28;20393;-72
2022/08/15 09:55:44;;;;;;;6.57;4.60;;;24.40;56.10;;;;;;5005417;28;20401;-71
2022/08/15 09:58:25;;;;;;;6.78;4.90;;;24.40;56.10;;;;;;5005525;28;20589;-71
2022/08/15 10:00:53;;;;;;;6.07;4.90;;;24.40;56.10;;;;;;5005451;28;20400;-71
2022/08/15 10:03:36;;;;;;;6.60;4.55;;;24.40;56.10;;;;;;5002737;28;20427;-72
2022/08/15 10:06:04;;;;;;;5.35;4.70;;;24.40;56.10;;;;;;5004008;28;20773;-71
2022/08/15 10:08:57;;;;;;;5.82;5.13;;;24.40;56.10;;;;;;5005201;28;20424;-71
2022/08/15 10:11:51;;;;;;;6.75;5.15;;;24.40;56.00;;;;;;4985272;28;20477;-71
2022/08/15 10:14:20;;;;;;;6.05;4.78;;;24.40;56.00;;;;;;5004973;28;20397;-71
2022/08/15 10:16:52;;;;;;;7.05;4.75;;;24.40;56.00;;;;;;4988049;28;20489;-71
2022/08/15 10:19:30;;;;;;;5.90;5.30;;;24.40;56.00;;;;;;5003869;28;20385;-72
2022/08/15 10:21:59;;;;;;;6.22;4.88;;;24.40;55.90;;;;;;5003680;28;20486;-72
2022/08/15 10:24:28;;;;;;;4.90;4.35;;;24.40;55.90;;;;;;5005699;28;20404;-71
2022/08/15 10:27:07;;;;;;;6.15;4.75;;;24.40;55.90;;;;;;5003325;28;20733;-72
2022/08/15 10:29:35;;;;;;;5.95;4.80;;;24.40;55.80;;;;;;5003361;28;20911;-72
2022/08/15 10:32:02;;;;;;;5.28;4.60;;;24.40;55.90;;;;;;5003283;28;20404;-70
2022/08/15 10:34:35;;;;;;;5.30;4.80;;;24.40;55.80;;;;;;4989741;28;20958;-70
2022/08/15 10:37:24;;;;;;;5.55;4.50;;;24.40;56.00;;;;;;5003356;28;20411;-70
2022/08/15 10:40:02;;;;;;;8.68;4.90;;;24.40;56.00;;;;;;5004773;28;20405;-69
2022/08/15 10:42:36;;;;;;;8.95;5.10;;;24.40;56.10;;;;;;5002356;28;20427;-70
2022/08/15 10:45:41;;;;;;;7.72;4.70;;;24.40;56.10;;;;;;5004469;28;20399;-70
2022/08/15 10:48:23;;;;;;;6.38;4.50;;;24.50;56.10;;;;;;5003019;28;20928;-69
2022/08/15 10:51:36;;;;;;;6.35;4.57;;;24.50;56.10;;;;;;5003065;28;20408;-69
2022/08/15 10:54:14;;;;;;;6.32;4.65;;;24.50;56.00;;;;;;4956280;28;20403;-69
2022/08/15 10:56:41;;;;;;;10.35;7.63;;;24.50;56.20;;;;;;5003104;28;20421;-69
2022/08/15 10:59:13;;;;;;;32.22;18.23;;;24.50;56.40;;;;;;5003968;28;20398;-70
2022/08/15 11:01:43;;;;;;;36.40;19.87;;;24.60;58.10;;;;;;5004071;28;20825;-70
2022/08/15 11:04:23;;;;;;;28.55;17.98;;;24.70;58.80;;;;;;5003973;28;20407;-71
2022/08/15 11:06:50;;;;;;;51.73;31.67;;;24.80;58.10;;;;;;4986453;28;20396;-70
2022/08/15 11:09:19;;;;;;;44.45;24.50;;;24.90;58.70;;;;;;4984030;28;20407;-69
2022/08/15 11:12:00;;;;;;;54.58;26.65;;;25.00;58.20;;;;;;5001744;28;20874;-71
2022/08/15 11:14:33;;;;;;;63.00;36.03;;;25.00;60.00;;;;;;4986018;28;20429;-70
2022/08/15 11:17:00;;;;;;;58.63;36.60;;;25.10;59.50;;;;;;5009160;28;20393;-70
2022/08/15 11:19:32;;;;;;;63.67;38.70;;;25.20;60.10;;;;;;5004560;28;20401;-70
2022/08/15 11:22:16;;;;;;;55.50;44.17;;;25.30;60.60;;;;;;4985496;28;20423;-70
2022/08/15 11:24:42;;;;;;;53.67;40.83;;;25.40;63.00;;;;;;5003664;28;20408;-70
2022/08/15 11:27:24;;;;;;;49.92;33.03;;;25.50;62.00;;;;;;4985943;28;21431;-69
2022/08/15 11:29:52;;;;;;;43.35;27.25;;;25.60;61.80;;;;;;5005960;28;20401;-70
2022/08/15 11:32:32;;;;;;;37.07;22.20;;;25.80;60.40;;;;;;5013399;28;20383;-70
2022/08/15 11:35:00;;;;;;;30.58;18.88;;;25.80;60.20;;;;;;5012944;28;20401;-71
2022/08/15 11:37:30;;;;;;;28.20;17.13;;;25.80;59.60;;;;;;4995757;28;20441;-72
2022/08/15 11:40:05;;;;;;;24.15;15.20;;;25.80;59.40;;;;;;4992160;28;20406;-72
2022/08/15 11:42:38;;;;;;;19.70;13.40;;;25.80;60.20;;;;;;5001788;28;20460;-70
2022/08/15 11:45:15;;;;;;;20.77;12.77;;;25.70;59.60;;;;;;5003580;28;20387;-72
2022/08/15 11:47:46;;;;;;;18.02;12.35;;;25.70;58.80;;;;;;5003952;28;20764;-72
2022/08/15 11:50:38;;;;;;;16.67;11.93;;;25.60;58.30;;;;;;5000691;28;20466;-73
2022/08/15 11:53:06;;;;;;;16.38;10.27;;;25.60;58.40;;;;;;5003366;28;20410;-72
2022/08/15 11:55:32;;;;;;;14.90;10.90;;;25.60;58.20;;;;;;5002304;28;20408;-72
2022/08/15 11:58:13;;;;;;;12.35;9.73;;;25.60;57.60;;;;;;4985650;28;21206;-71
2022/08/15 12:00:49;;;;;;;16.30;9.30;;;25.60;57.40;;;;;;5004186;28;20397;-71
2022/08/15 12:03:34;;;;;;;19.10;9.27;;;25.60;57.30;;;;;;4992376;28;20428;-72
2022/08/15 12:06:12;;;;;;;21.02;8.80;;;25.60;57.30;;;;;;5002827;28;20484;-71
2022/08/15 12:08:39;;;;;;;14.25;8.65;;;25.60;59.90;;;;;;5002962;28;20407;-72
2022/08/15 12:11:07;;;;;;;17.02;8.15;;;25.70;58.90;;;;;;4985966;28;20795;-72
2022/08/15 12:13:33;;;;;;;17.42;8.57;;;25.70;59.40;;;;;;4984286;28;20401;-70
2022/08/15 12:15:59;;;;;;;12.90;8.00;;;25.70;59.30;;;;;;5002501;28;20816;-70
2022/08/15 12:18:27;;;;;;;12.10;8.30;;;25.70;59.30;;;;;;5000765;28;20409;-71
2022/08/15 12:20:59;;;;;;;12.32;7.53;;;25.70;59.40;;;;;;5000778;28;20477;-71
2022/08/15 12:23:42;;;;;;;14.27;7.30;;;25.70;58.70;;;;;;4982471;28;20449;-72
2022/08/15 12:26:15;;;;;;;10.77;7.20;;;25.70;59.20;;;;;;5002555;28;20392;-72
2022/08/15 12:28:43;;;;;;;11.88;6.68;;;25.70;58.70;;;;;;5002413;28;20912;-71
2022/08/15 12:31:22;;;;;;;10.47;6.77;;;25.70;59.20;;;;;;5000528;28;20393;-72
2022/08/15 12:34:04;;;;;;;8.93;6.90;;;25.70;58.70;;;;;;5002494;28;20404;-73
2022/08/15 12:36:31;;;;;;;8.32;5.85;;;25.70;58.90;;;;;;5002485;28;20414;-69
2022/08/15 12:38:56;;;;;;;10.63;6.07;;;25.70;58.70;;;;;;5000581;28;20427;-74
2022/08/15 12:41:24;;;;;;;9.90;6.10;;;25.80;60.10;;;;;;5000298;28;20880;-71
2022/08/15 12:43:51;;;;;;;7.85;6.03;;;25.90;60.00;;;;;;5000742;28;20418;-74
2022/08/15 12:46:18;;;;;;;9.68;6.03;;;25.90;59.10;;;;;;5002463;28;20387;-72
2022/08/15 12:48:47;;;;;;;7.00;5.63;;;25.80;58.00;;;;;;5002834;28;20954;-71
2022/08/15 12:51:14;;;;;;;8.67;5.70;;;25.90;58.20;;;;;;5003538;28;20433;-71
2022/08/15 12:53:40;;;;;;;8.95;5.70;;;25.90;58.20;;;;;;5000794;28;20395;-71
2022/08/15 12:56:07;;;;;;;7.75;5.40;;;25.90;58.40;;;;;;5001790;28;20405;-72
2022/08/15 12:58:35;;;;;;;7.55;5.53;;;25.90;58.00;;;;;;5000454;28;20458;-71
2022/08/15 13:01:00;;;;;;;9.80;5.40;;;25.90;57.70;;;;;;5000740;28;20408;-72
2022/08/15 13:03:28;;;;;;;12.77;5.22;;;25.90;57.70;;;;;;4999424;28;20427;-71
2022/08/15 13:06:10;;;;;;;10.15;5.47;;;25.80;57.10;;;;;;5001580;28;20385;-71
2022/08/15 13:08:36;;;;;;;11.68;5.20;;;25.80;57.30;;;;;;5003353;28;20382;-71
2022/08/15 13:11:02;;;;;;;7.90;5.60;;;25.80;57.10;;;;;;5000533;28;20816;-72
2022/08/15 13:13:28;;;;;;;8.77;5.22;;;25.80;56.50;;;;;;5001883;28;20405;-71
2022/08/15 13:15:54;;;;;;;8.93;5.20;;;25.80;56.50;;;;;;4999093;28;20453;-71
2022/08/15 13:18:24;;;;;;;7.68;5.50;;;25.90;56.50;;;;;;4985132;28;20469;-72